sensor_id;sensor_type;location;lat;lon;timestamp;pressure;altitude;pressure_sealevel;temperature;humidity
46079;BME280;31820;51.880;-0.518;2022-10-16T00:00:37;98530.56;;;15.55;78.23
46079;BME280;31820;51.880;-0.518;2022-10-16T00:03:03;98536.00;;;15.55;78.22
46079;BME280;31820;51.880;-0.518;2022-10-16T00:05:29;98546.03;;;15.54;78.11
46079;BME280;31820;51.880;-0.518;2022-10-16T00:07:55;98553.31;;;15.54;78.23
46079;BME280;31820;51.880;-0.518;2022-10-16T00:10:21;98550.63;;;15.54;78.06
46079;BME280;31820;51.880;-0.518;2022-10-16T00:12:46;98554.38;;;15.53;78.14
46079;BME280;31820;51.880;-0.518;2022-10-16T00:15:12;98550.63;;;15.54;78.12
46079;BME280;31820;51.880;-0.518;2022-10-16T00:17:38;98561.47;;;15.54;78.16
46079;BME280;31820;51.880;-0.518;2022-10-16T00:20:04;98554.38;;;15.53;77.98
46079;BME280;31820;51.880;-0.518;2022-10-16T00:22:29;98548.94;;;15.53;78.21
46079;BME280;31820;51.880;-0.518;2022-10-16T00:24:55;98544.69;;;15.44;78.01
46079;BME280;31820;51.880;-0.518;2022-10-16T00:27:21;98566.09;;;15.53;78.12
46079;BME280;31820;51.880;-0.518;2022-10-16T00:29:50;98558.97;;;15.52;78.24
46079;BME280;31820;51.880;-0.518;2022-10-16T00:32:17;98554.38;;;15.53;78.08
46079;BME280;31820;51.880;-0.518;2022-10-16T00:34:43;98558.13;;;15.52;78.01
46079;BME280;31820;51.880;-0.518;2022-10-16T00:37:08;98558.97;;;15.52;78.27
46079;BME280;31820;51.880;-0.518;2022-10-16T00:39:34;98548.94;;;15.53;78.21
46079;BME280;31820;51.880;-0.518;2022-10-16T00:41:59;98551.88;;;15.51;78.08
46079;BME280;31820;51.880;-0.518;2022-10-16T00:47:39;98544.53;;;15.52;77.95
46079;BME280;31820;51.880;-0.518;2022-10-16T00:52:34;98545.13;;;15.47;77.98
46079;BME280;31820;51.880;-0.518;2022-10-16T00:55:02;98516.16;;;15.33;78.08
46079;BME280;31820;51.880;-0.518;2022-10-16T00:57:28;98543.91;;;15.50;78.21
46079;BME280;31820;51.880;-0.518;2022-10-16T00:59:54;98550.16;;;15.50;78.24
46079;BME280;31820;51.880;-0.518;2022-10-16T01:02:20;98551.38;;;15.48;77.95
46079;BME280;31820;51.880;-0.518;2022-10-16T01:04:48;98554.78;;;15.50;77.96
46079;BME280;31820;51.880;-0.518;2022-10-16T01:12:41;98546.81;;;15.48;78.22
46079;BME280;31820;51.880;-0.518;2022-10-16T01:17:58;98561.22;;;15.49;78.21
46079;BME280;31820;51.880;-0.518;2022-10-16T01:20:59;98560.59;;;15.47;78.28
46079;BME280;31820;51.880;-0.518;2022-10-16T01:29:31;98562.25;;;15.48;78.20
46079;BME280;31820;51.880;-0.518;2022-10-16T01:32:02;98566.03;;;15.47;78.12
46079;BME280;31820;51.880;-0.518;2022-10-16T01:34:48;98573.31;;;15.46;78.07
46079;BME280;31820;51.880;-0.518;2022-10-16T01:37:21;98576.44;;;15.43;78.23
46079;BME280;31820;51.880;-0.518;2022-10-16T01:39:49;98569.34;;;15.42;78.23
46079;BME280;31820;51.880;-0.518;2022-10-16T01:42:22;98567.88;;;15.46;78.14
46079;BME280;31820;51.880;-0.518;2022-10-16T01:44:51;98570.59;;;15.46;78.25
46079;BME280;31820;51.880;-0.518;2022-10-16T01:47:20;98579.16;;;15.43;78.17
46079;BME280;31820;51.880;-0.518;2022-10-16T01:49:47;98572.50;;;15.46;78.16
46079;BME280;31820;51.880;-0.518;2022-10-16T01:52:17;98574.56;;;15.44;78.18
46079;BME280;31820;51.880;-0.518;2022-10-16T01:54:47;98570.78;;;15.45;78.35
46079;BME280;31820;51.880;-0.518;2022-10-16T01:57:16;98582.53;;;15.45;78.21
46079;BME280;31820;51.880;-0.518;2022-10-16T01:59:47;98570.78;;;15.45;78.32
46079;BME280;31820;51.880;-0.518;2022-10-16T02:02:15;98579.81;;;15.45;78.34
46079;BME280;31820;51.880;-0.518;2022-10-16T02:05:08;98571.84;;;15.44;78.32
46079;BME280;31820;51.880;-0.518;2022-10-16T02:07:36;98583.34;;;15.46;78.34
46079;BME280;31820;51.880;-0.518;2022-10-16T02:10:01;98581.66;;;15.45;78.31
46079;BME280;31820;51.880;-0.518;2022-10-16T02:12:30;98577.28;;;15.44;77.88
46079;BME280;31820;51.880;-0.518;2022-10-16T02:14:57;98589.81;;;15.45;78.23
46079;BME280;31820;51.880;-0.518;2022-10-16T02:17:23;98593.41;;;15.45;78.21
46079;BME280;31820;51.880;-0.518;2022-10-16T02:19:51;98592.53;;;15.45;78.14
46079;BME280;31820;51.880;-0.518;2022-10-16T02:25:15;98593.59;;;15.44;78.24
46079;BME280;31820;51.880;-0.518;2022-10-16T02:27:59;98600.69;;;15.45;77.97
46079;BME280;31820;51.880;-0.518;2022-10-16T02:30:34;98613.63;;;15.43;78.13
46079;BME280;31820;51.880;-0.518;2022-10-16T02:33:05;98614.47;;;15.43;78.25
46079;BME280;31820;51.880;-0.518;2022-10-16T02:35:32;98613.63;;;15.43;78.33
46079;BME280;31820;51.880;-0.518;2022-10-16T02:37:58;98615.31;;;15.44;78.30
46079;BME280;31820;51.880;-0.518;2022-10-16T02:40:25;98629.94;;;15.43;78.16
46079;BME280;31820;51.880;-0.518;2022-10-16T02:42:53;98630.75;;;15.43;78.14
46079;BME280;31820;51.880;-0.518;2022-10-16T02:45:18;98633.03;;;15.40;78.03
46079;BME280;31820;51.880;-0.518;2022-10-16T02:47:44;98632.00;;;15.41;78.32
46079;BME280;31820;51.880;-0.518;2022-10-16T02:50:10;98636.38;;;15.42;78.23
46079;BME280;31820;51.880;-0.518;2022-10-16T02:52:35;98645.59;;;15.41;78.31
46079;BME280;31820;51.880;-0.518;2022-10-16T02:55:01;98647.25;;;15.42;78.24
46079;BME280;31820;51.880;-0.518;2022-10-16T02:57:27;98644.53;;;15.42;78.17
46079;BME280;31820;51.880;-0.518;2022-10-16T02:59:52;98652.69;;;15.42;78.28
46079;BME280;31820;51.880;-0.518;2022-10-16T03:02:18;98652.88;;;15.40;78.29
46079;BME280;31820;51.880;-0.518;2022-10-16T03:04:44;98660.00;;;15.41;78.04
46079;BME280;31820;51.880;-0.518;2022-10-16T03:07:09;98648.69;;;15.37;78.12
46079;BME280;31820;51.880;-0.518;2022-10-16T03:09:35;98659.16;;;15.41;78.26
46079;BME280;31820;51.880;-0.518;2022-10-16T03:12:00;98651.22;;;15.39;78.38
46079;BME280;31820;51.880;-0.518;2022-10-16T03:14:25;98661.03;;;15.40;78.30
46079;BME280;31820;51.880;-0.518;2022-10-16T03:16:51;98668.34;;;15.40;78.29
46079;BME280;31820;51.880;-0.518;2022-10-16T03:19:17;98673.78;;;15.40;78.14
46079;BME280;31820;51.880;-0.518;2022-10-16T03:21:43;98669.38;;;15.38;78.23
46079;BME280;31820;51.880;-0.518;2022-10-16T03:24:09;98666.88;;;15.37;78.29
46079;BME280;31820;51.880;-0.518;2022-10-16T03:26:34;98669.78;;;15.35;78.29
46079;BME280;31820;51.880;-0.518;2022-10-16T03:29:00;98675.22;;;15.35;77.94
46079;BME280;31820;51.880;-0.518;2022-10-16T03:31:27;98681.47;;;15.36;77.95
46079;BME280;31820;51.880;-0.518;2022-10-16T03:33:53;98683.16;;;15.37;78.13
46079;BME280;31820;51.880;-0.518;2022-10-16T03:36:18;98688.59;;;15.37;78.25
46079;BME280;31820;51.880;-0.518;2022-10-16T03:38:44;98693.16;;;15.36;78.34
46079;BME280;31820;51.880;-0.518;2022-10-16T03:41:09;98701.31;;;15.36;78.19
46079;BME280;31820;51.880;-0.518;2022-10-16T03:43:34;98699.66;;;15.35;78.17
46079;BME280;31820;51.880;-0.518;2022-10-16T03:46:00;98694.41;;;15.34;78.34
46079;BME280;31820;51.880;-0.518;2022-10-16T03:48:25;98698.78;;;15.35;78.32
46079;BME280;31820;51.880;-0.518;2022-10-16T03:50:51;98715.09;;;15.35;78.25
46079;BME280;31820;51.880;-0.518;2022-10-16T03:53:17;98704.22;;;15.35;78.38
46079;BME280;31820;51.880;-0.518;2022-10-16T03:55:43;98701.50;;;15.35;78.30
46079;BME280;31820;51.880;-0.518;2022-10-16T03:58:08;98711.53;;;15.34;78.25
46079;BME280;31820;51.880;-0.518;2022-10-16T04:00:34;98718.88;;;15.34;78.39
46079;BME280;31820;51.880;-0.518;2022-10-16T04:03:00;98716.97;;;15.34;78.20
46079;BME280;31820;51.880;-0.518;2022-10-16T04:05:26;98718.88;;;15.34;78.38
46079;BME280;31820;51.880;-0.518;2022-10-16T04:07:52;98720.91;;;15.32;78.25
46079;BME280;31820;51.880;-0.518;2022-10-16T04:10:17;98734.28;;;15.33;78.16
46079;BME280;31820;51.880;-0.518;2022-10-16T04:12:44;98730.09;;;15.31;78.21
46079;BME280;31820;51.880;-0.518;2022-10-16T04:15:09;98734.28;;;15.33;78.43
46079;BME280;31820;51.880;-0.518;2022-10-16T04:17:35;98732.63;;;15.32;78.45
46079;BME280;31820;51.880;-0.518;2022-10-16T04:20:01;98731.31;;;15.28;78.08
46079;BME280;31820;51.880;-0.518;2022-10-16T04:22:26;98739.91;;;15.32;78.35
46079;BME280;31820;51.880;-0.518;2022-10-16T04:24:51;98747.25;;;15.31;78.26
46079;BME280;31820;51.880;-0.518;2022-10-16T04:27:17;98752.66;;;15.31;78.20
46079;BME280;31820;51.880;-0.518;2022-10-16T04:29:43;98762.69;;;15.31;78.21
46079;BME280;31820;51.880;-0.518;2022-10-16T04:32:09;98763.53;;;15.31;78.09
46079;BME280;31820;51.880;-0.518;2022-10-16T04:34:34;98772.69;;;15.30;78.40
46079;BME280;31820;51.880;-0.518;2022-10-16T04:37:00;98778.13;;;15.30;78.19
46079;BME280;31820;51.880;-0.518;2022-10-16T04:39:25;98785.44;;;15.30;78.23
46079;BME280;31820;51.880;-0.518;2022-10-16T04:41:51;98793.59;;;15.30;78.15
46079;BME280;31820;51.880;-0.518;2022-10-16T04:44:16;98795.47;;;15.29;78.38
46079;BME280;31820;51.880;-0.518;2022-10-16T04:46:42;98795.47;;;15.29;78.35
46079;BME280;31820;51.880;-0.518;2022-10-16T04:49:08;98807.56;;;15.27;78.34
46079;BME280;31820;51.880;-0.518;2022-10-16T04:51:33;98810.91;;;15.29;78.29
46079;BME280;31820;51.880;-0.518;2022-10-16T04:53:59;98821.97;;;15.27;78.41
46079;BME280;31820;51.880;-0.518;2022-10-16T04:56:24;98827.41;;;15.27;78.44
46079;BME280;31820;51.880;-0.518;2022-10-16T04:58:50;98827.41;;;15.27;78.44
46079;BME280;31820;51.880;-0.518;2022-10-16T05:01:15;98827.78;;;15.24;78.16
46079;BME280;31820;51.880;-0.518;2022-10-16T05:03:41;98840.34;;;15.25;78.44
46079;BME280;31820;51.880;-0.518;2022-10-16T05:06:06;98843.06;;;15.25;78.46
46079;BME280;31820;51.880;-0.518;2022-10-16T05:08:32;98854.94;;;15.24;78.46
46079;BME280;31820;51.880;-0.518;2022-10-16T05:10:58;98858.69;;;15.23;78.23
46079;BME280;31820;51.880;-0.518;2022-10-16T05:13:23;98859.53;;;15.24;78.54
46079;BME280;31820;51.880;-0.518;2022-10-16T05:15:49;98864.97;;;15.24;78.43
46079;BME280;31820;51.880;-0.518;2022-10-16T05:18:15;98870.41;;;15.24;78.19
46079;BME280;31820;51.880;-0.518;2022-10-16T05:20:41;98871.59;;;15.21;78.49
46079;BME280;31820;51.880;-0.518;2022-10-16T05:23:07;98869.56;;;15.23;78.29
46079;BME280;31820;51.880;-0.518;2022-10-16T05:25:33;98881.44;;;15.22;78.13
46079;BME280;31820;51.880;-0.518;2022-10-16T05:27:58;98886.88;;;15.22;78.20
46079;BME280;31820;51.880;-0.518;2022-10-16T05:30:23;98890.44;;;15.23;78.17
46079;BME280;31820;51.880;-0.518;2022-10-16T05:32:50;98887.91;;;15.21;78.22
46079;BME280;31820;51.880;-0.518;2022-10-16T05:35:17;98899.63;;;15.22;78.34
46079;BME280;31820;51.880;-0.518;2022-10-16T05:37:43;98895.22;;;15.20;78.31
46079;BME280;31820;51.880;-0.518;2022-10-16T05:40:09;98899.81;;;15.20;78.31
46079;BME280;31820;51.880;-0.518;2022-10-16T05:42:35;98902.53;;;15.20;78.27
46079;BME280;31820;51.880;-0.518;2022-10-16T05:45:00;98906.06;;;15.20;78.40
46079;BME280;31820;51.880;-0.518;2022-10-16T05:47:26;98901.66;;;15.19;78.26
46079;BME280;31820;51.880;-0.518;2022-10-16T05:49:52;98916.28;;;15.18;78.20
46079;BME280;31820;51.880;-0.518;2022-10-16T05:52:18;98917.13;;;15.19;78.24
46079;BME280;31820;51.880;-0.518;2022-10-16T05:54:44;98926.28;;;15.18;78.18
46079;BME280;31820;51.880;-0.518;2022-10-16T05:57:09;98925.44;;;15.17;78.45
46079;BME280;31820;51.880;-0.518;2022-10-16T05:59:35;98921.91;;;15.17;78.36
46079;BME280;31820;51.880;-0.518;2022-10-16T06:02:00;98937.16;;;15.18;78.53
46079;BME280;31820;51.880;-0.518;2022-10-16T06:04:26;98929.22;;;15.16;78.50
46079;BME280;31820;51.880;-0.518;2022-10-16T06:06:51;98928.72;;;15.13;78.26
46079;BME280;31820;51.880;-0.518;2022-10-16T06:09:17;98940.91;;;15.17;78.35
46079;BME280;31820;51.880;-0.518;2022-10-16T06:11:42;98944.66;;;15.16;78.56
46079;BME280;31820;51.880;-0.518;2022-10-16T06:14:08;98951.78;;;15.17;78.20
46079;BME280;31820;51.880;-0.518;2022-10-16T06:16:38;98958.41;;;15.14;78.38
46079;BME280;31820;51.880;-0.518;2022-10-16T06:19:03;98965.53;;;15.15;78.29
46079;BME280;31820;51.880;-0.518;2022-10-16T06:21:31;98965.53;;;15.15;78.54
46079;BME280;31820;51.880;-0.518;2022-10-16T06:23:58;98965.72;;;15.14;78.33
46079;BME280;31820;51.880;-0.518;2022-10-16T06:26:26;98964.69;;;15.15;78.31
46079;BME280;31820;51.880;-0.518;2022-10-16T06:28:54;98961.31;;;15.13;78.29
46079;BME280;31820;51.880;-0.518;2022-10-16T06:31:20;98983.72;;;15.15;78.20
46079;BME280;31820;51.880;-0.518;2022-10-16T06:33:50;98986.44;;;15.15;78.53
46079;BME280;31820;51.880;-0.518;2022-10-16T06:36:16;98991.84;;;15.15;78.24
46079;BME280;31820;51.880;-0.518;2022-10-16T06:38:43;98982.84;;;15.14;78.57
46079;BME280;31820;51.880;-0.518;2022-10-16T06:41:14;98982.38;;;15.11;78.36
46079;BME280;31820;51.880;-0.518;2022-10-16T06:43:40;98995.41;;;15.15;78.30
46079;BME280;31820;51.880;-0.518;2022-10-16T06:46:07;99001.66;;;15.16;78.14
46079;BME280;31820;51.880;-0.518;2022-10-16T06:48:34;98998.47;;;15.12;78.26
46079;BME280;31820;51.880;-0.518;2022-10-16T06:51:04;99006.09;;;15.17;78.23
46079;BME280;31820;51.880;-0.518;2022-10-16T06:53:36;99006.28;;;15.15;78.01
46079;BME280;31820;51.880;-0.518;2022-10-16T06:58:38;99022.19;;;15.18;78.08
46079;BME280;31820;51.880;-0.518;2022-10-16T07:01:04;99025.75;;;15.19;78.06
46079;BME280;31820;51.880;-0.518;2022-10-16T07:03:30;99025.75;;;15.19;77.82
46079;BME280;31820;51.880;-0.518;2022-10-16T07:05:56;99041.88;;;15.20;77.88
46079;BME280;31820;51.880;-0.518;2022-10-16T07:08:22;99045.41;;;15.21;77.96
46079;BME280;31820;51.880;-0.518;2022-10-16T07:10:47;99050.66;;;15.23;77.92
46079;BME280;31820;51.880;-0.518;2022-10-16T07:13:13;99056.97;;;15.23;77.57
46079;BME280;31820;51.880;-0.518;2022-10-16T07:15:40;99056.09;;;15.23;77.51
46079;BME280;31820;51.880;-0.518;2022-10-16T07:18:06;99058.63;;;15.24;77.65
46079;BME280;31820;51.880;-0.518;2022-10-16T07:20:32;99062.22;;;15.25;77.64
46079;BME280;31820;51.880;-0.518;2022-10-16T07:22:58;99061.00;;;15.27;77.53
46079;BME280;31820;51.880;-0.518;2022-10-16T07:25:23;99071.00;;;15.27;77.61
46079;BME280;31820;51.880;-0.518;2022-10-16T07:27:49;99072.72;;;15.28;77.23
46079;BME280;31820;51.880;-0.518;2022-10-16T07:30:14;99078.97;;;15.28;77.41
46079;BME280;31820;51.880;-0.518;2022-10-16T07:32:40;99079.63;;;15.30;77.33
46079;BME280;31820;51.880;-0.518;2022-10-16T07:35:06;99078.63;;;15.31;77.27
46079;BME280;31820;51.880;-0.518;2022-10-16T07:37:32;99085.06;;;15.30;77.21
46079;BME280;31820;51.880;-0.518;2022-10-16T07:39:57;99085.75;;;15.32;77.14
46079;BME280;31820;51.880;-0.518;2022-10-16T07:42:23;99091.19;;;15.32;77.27
46079;BME280;31820;51.880;-0.518;2022-10-16T07:44:48;99093.91;;;15.32;77.10
46079;BME280;31820;51.880;-0.518;2022-10-16T07:47:14;99098.09;;;15.35;77.11
46079;BME280;31820;51.880;-0.518;2022-10-16T07:49:39;99101.00;;;15.33;76.85
46079;BME280;31820;51.880;-0.518;2022-10-16T07:52:05;99107.31;;;15.34;76.82
46079;BME280;31820;51.880;-0.518;2022-10-16T07:54:30;99116.75;;;15.38;76.49
46079;BME280;31820;51.880;-0.518;2022-10-16T07:56:56;99121.19;;;15.39;76.85
46079;BME280;31820;51.880;-0.518;2022-10-16T07:59:21;99118.00;;;15.35;76.72
46079;BME280;31820;51.880;-0.518;2022-10-16T08:01:48;99129.34;;;15.39;76.66
46079;BME280;31820;51.880;-0.518;2022-10-16T08:04:14;99131.00;;;15.40;76.68
46079;BME280;31820;51.880;-0.518;2022-10-16T08:06:40;99131.88;;;15.41;76.57
46079;BME280;31820;51.880;-0.518;2022-10-16T08:09:07;99136.25;;;15.42;76.34
46079;BME280;31820;51.880;-0.518;2022-10-16T08:11:33;99147.13;;;15.42;76.65
46079;BME280;31820;51.880;-0.518;2022-10-16T08:13:58;99151.53;;;15.43;76.52
46079;BME280;31820;51.880;-0.518;2022-10-16T08:16:24;99163.25;;;15.43;76.27
46079;BME280;31820;51.880;-0.518;2022-10-16T08:18:49;99153.25;;;15.44;76.44
46079;BME280;31820;51.880;-0.518;2022-10-16T08:21:21;99156.16;;;15.42;76.47
46079;BME280;31820;51.880;-0.518;2022-10-16T08:23:49;99157.63;;;15.45;76.50
46079;BME280;31820;51.880;-0.518;2022-10-16T08:26:14;99172.09;;;15.45;76.30
46079;BME280;31820;51.880;-0.518;2022-10-16T08:28:40;99171.56;;;15.42;76.10
46079;BME280;31820;51.880;-0.518;2022-10-16T08:31:11;99175.47;;;15.47;76.17
46079;BME280;31820;51.880;-0.518;2022-10-16T08:33:38;99178.19;;;15.47;76.12
46079;BME280;31820;51.880;-0.518;2022-10-16T08:36:04;99179.88;;;15.48;75.86
46079;BME280;31820;51.880;-0.518;2022-10-16T08:38:30;99186.31;;;15.47;76.04
46079;BME280;31820;51.880;-0.518;2022-10-16T08:41:17;99194.31;;;15.49;76.09
46079;BME280;31820;51.880;-0.518;2022-10-16T08:43:54;99192.41;;;15.49;76.16
46079;BME280;31820;51.880;-0.518;2022-10-16T08:46:36;99204.16;;;15.50;75.90
46079;BME280;31820;51.880;-0.518;2022-10-16T08:49:11;99203.09;;;15.51;75.88
46079;BME280;31820;51.880;-0.518;2022-10-16T08:51:39;99210.25;;;15.52;75.91
46079;BME280;31820;51.880;-0.518;2022-10-16T08:54:08;99204.81;;;15.52;75.89
46079;BME280;31820;51.880;-0.518;2022-10-16T08:56:36;99204.81;;;15.52;76.18
46079;BME280;31820;51.880;-0.518;2022-10-16T08:59:06;99209.22;;;15.53;75.88
46079;BME280;31820;51.880;-0.518;2022-10-16T09:01:40;99211.06;;;15.52;75.82
46079;BME280;31820;51.880;-0.518;2022-10-16T09:04:30;99218.88;;;15.55;75.76
46079;BME280;31820;51.880;-0.518;2022-10-16T09:07:21;99220.94;;;15.53;75.85
46079;BME280;31820;51.880;-0.518;2022-10-16T09:12:48;99234.16;;;15.56;75.65
46079;BME280;31820;51.880;-0.518;2022-10-16T09:15:25;99227.19;;;15.54;75.57
46079;BME280;31820;51.880;-0.518;2022-10-16T09:23:22;99246.22;;;15.54;75.53
46079;BME280;31820;51.880;-0.518;2022-10-16T09:25:50;99255.72;;;15.58;75.51
46079;BME280;31820;51.880;-0.518;2022-10-16T09:28:17;99240.25;;;15.59;75.37
46079;BME280;31820;51.880;-0.518;2022-10-16T09:30:43;99245.69;;;15.59;75.53
46079;BME280;31820;51.880;-0.518;2022-10-16T09:33:11;99243.16;;;15.57;75.50
46079;BME280;31820;51.880;-0.518;2022-10-16T09:35:39;99241.09;;;15.59;75.58
46079;BME280;31820;51.880;-0.518;2022-10-16T09:38:06;99246.34;;;15.61;75.50
46079;BME280;31820;51.880;-0.518;2022-10-16T09:40:35;99244.50;;;15.61;75.53
46079;BME280;31820;51.880;-0.518;2022-10-16T09:46:06;99251.13;;;15.59;75.35
46079;BME280;31820;51.880;-0.518;2022-10-16T09:48:39;99251.97;;;15.59;75.28
46079;BME280;31820;51.880;-0.518;2022-10-16T09:51:18;99253.31;;;15.63;75.42
46079;BME280;31820;51.880;-0.518;2022-10-16T09:53:46;99258.75;;;15.63;75.33
46079;BME280;31820;51.880;-0.518;2022-10-16T09:56:22;99257.72;;;15.64;75.39
46079;BME280;31820;51.880;-0.518;2022-10-16T09:58:56;99255.00;;;15.64;75.17
46079;BME280;31820;51.880;-0.518;2022-10-16T10:01:26;99257.72;;;15.64;75.20
46079;BME280;31820;51.880;-0.518;2022-10-16T10:03:56;99259.41;;;15.65;75.08
46079;BME280;31820;51.880;-0.518;2022-10-16T10:06:31;99255.66;;;15.66;75.17
46079;BME280;31820;51.880;-0.518;2022-10-16T10:09:15;99259.22;;;15.67;75.17
46079;BME280;31820;51.880;-0.518;2022-10-16T10:11:50;99260.09;;;15.67;75.13
46079;BME280;31820;51.880;-0.518;2022-10-16T10:16:48;99261.75;;;15.68;75.16
46079;BME280;31820;51.880;-0.518;2022-10-16T10:19:21;99255.31;;;15.69;75.12
46079;BME280;31820;51.880;-0.518;2022-10-16T10:21:49;99263.47;;;15.69;75.13
46079;BME280;31820;51.880;-0.518;2022-10-16T10:24:15;99270.59;;;15.70;74.93
46079;BME280;31820;51.880;-0.518;2022-10-16T10:27:10;99275.00;;;15.71;74.88
46079;BME280;31820;51.880;-0.518;2022-10-16T10:32:53;99272.47;;;15.70;74.86
46079;BME280;31820;51.880;-0.518;2022-10-16T10:46:51;99262.94;;;15.74;74.79
46079;BME280;31820;51.880;-0.518;2022-10-16T10:55:03;99260.03;;;15.76;74.77
46079;BME280;31820;51.880;-0.518;2022-10-16T11:00:28;99260.03;;;15.76;74.73
46079;BME280;31820;51.880;-0.518;2022-10-16T11:12:08;99268.88;;;15.78;74.73
46079;BME280;31820;51.880;-0.518;2022-10-16T11:14:23;99268.69;;;15.79;74.42
46079;BME280;31820;51.880;-0.518;2022-10-16T11:16:57;99269.16;;;15.83;74.41
46079;BME280;31820;51.880;-0.518;2022-10-16T11:19:44;99262.91;;;15.82;74.39
46079;BME280;31820;51.880;-0.518;2022-10-16T11:22:17;99261.03;;;15.83;74.24
46079;BME280;31820;51.880;-0.518;2022-10-16T11:27:38;99257.47;;;15.82;74.46
46079;BME280;31820;51.880;-0.518;2022-10-16T11:30:25;99258.69;;;15.80;74.36
46079;BME280;31820;51.880;-0.518;2022-10-16T11:33:10;99257.28;;;15.84;74.43
46079;BME280;31820;51.880;-0.518;2022-10-16T11:35:46;99257.66;;;15.81;74.37
46079;BME280;31820;51.880;-0.518;2022-10-16T11:38:30;99260.00;;;15.84;74.36
46079;BME280;31820;51.880;-0.518;2022-10-16T11:41:09;99252.31;;;15.87;74.15
46079;BME280;31820;51.880;-0.518;2022-10-16T11:46:27;99255.41;;;15.84;74.39
46079;BME280;31820;51.880;-0.518;2022-10-16T11:49:05;99260.66;;;15.86;74.24
46079;BME280;31820;51.880;-0.518;2022-10-16T11:51:39;99261.53;;;15.86;74.31
46079;BME280;31820;51.880;-0.518;2022-10-16T11:54:17;99252.50;;;15.86;74.34
46079;BME280;31820;51.880;-0.518;2022-10-16T11:56:50;99258.81;;;15.86;74.25
46079;BME280;31820;51.880;-0.518;2022-10-16T11:59:31;99246.88;;;15.87;74.28
46079;BME280;31820;51.880;-0.518;2022-10-16T12:04:45;99255.72;;;15.89;74.30
46079;BME280;31820;51.880;-0.518;2022-10-16T12:07:19;99250.09;;;15.91;74.10
46079;BME280;31820;51.880;-0.518;2022-10-16T12:09:47;99250.28;;;15.89;74.01
46079;BME280;31820;51.880;-0.518;2022-10-16T12:15:30;99257.53;;;15.97;74.11
46079;BME280;31820;51.880;-0.518;2022-10-16T12:17:56;99254.47;;;16.00;73.97
46079;BME280;31820;51.880;-0.518;2022-10-16T12:20:29;99251.75;;;16.00;73.98
46079;BME280;31820;51.880;-0.518;2022-10-16T12:23:01;99261.28;;;15.96;74.07
46079;BME280;31820;51.880;-0.518;2022-10-16T12:25:32;99255.84;;;15.96;74.19
46079;BME280;31820;51.880;-0.518;2022-10-16T12:30:41;99260.25;;;15.97;74.01
46079;BME280;31820;51.880;-0.518;2022-10-16T12:33:24;99260.91;;;15.99;73.93
46079;BME280;31820;51.880;-0.518;2022-10-16T12:35:50;99253.78;;;15.98;74.05
46079;BME280;31820;51.880;-0.518;2022-10-16T12:38:28;99257.19;;;16.00;74.07
46079;BME280;31820;51.880;-0.518;2022-10-16T12:41:01;99255.28;;;16.01;74.12
46079;BME280;31820;51.880;-0.518;2022-10-16T12:43:36;99252.56;;;16.01;74.16
46079;BME280;31820;51.880;-0.518;2022-10-16T12:46:22;99264.28;;;16.01;73.98
46079;BME280;31820;51.880;-0.518;2022-10-16T12:48:48;99256.97;;;16.02;73.87
46079;BME280;31820;51.880;-0.518;2022-10-16T12:54:29;99253.03;;;16.04;74.03
46079;BME280;31820;51.880;-0.518;2022-10-16T12:57:32;99261.84;;;16.06;74.03
46079;BME280;31820;51.880;-0.518;2022-10-16T13:00:28;99262.22;;;16.03;73.78
46079;BME280;31820;51.880;-0.518;2022-10-16T13:06:05;99257.47;;;16.05;73.80
46079;BME280;31820;51.880;-0.518;2022-10-16T13:16:38;99245.69;;;16.13;73.79
46079;BME280;31820;51.880;-0.518;2022-10-16T13:22:13;99268.94;;;16.16;73.56
46079;BME280;31820;51.880;-0.518;2022-10-16T13:28:12;99246.88;;;16.10;73.77
46079;BME280;31820;51.880;-0.518;2022-10-16T13:30:42;99250.25;;;16.13;73.82
46079;BME280;31820;51.880;-0.518;2022-10-16T13:33:27;99251.13;;;16.13;73.65
46079;BME280;31820;51.880;-0.518;2022-10-16T13:35:56;99252.31;;;16.10;73.88
46079;BME280;31820;51.880;-0.518;2022-10-16T13:38:28;99254.31;;;16.17;73.59
46079;BME280;31820;51.880;-0.518;2022-10-16T13:41:00;99253.59;;;16.23;73.43
46079;BME280;31820;51.880;-0.518;2022-10-16T13:43:33;99258.38;;;16.21;73.30
46079;BME280;31820;51.880;-0.518;2022-10-16T13:46:05;99255.44;;;16.22;73.60
46079;BME280;31820;51.880;-0.518;2022-10-16T13:48:33;99264.66;;;16.21;73.55
46079;BME280;31820;51.880;-0.518;2022-10-16T13:51:06;99253.13;;;16.19;73.49
46079;BME280;31820;51.880;-0.518;2022-10-16T13:53:36;99267.91;;;16.17;73.44
46079;BME280;31820;51.880;-0.518;2022-10-16T13:56:07;99240.97;;;16.07;73.86
46079;BME280;31820;51.880;-0.518;2022-10-16T13:58:35;99256.38;;;16.15;73.77
46079;BME280;31820;51.880;-0.518;2022-10-16T14:01:03;99260.41;;;16.19;73.56
46079;BME280;31820;51.880;-0.518;2022-10-16T14:03:33;99255.66;;;16.21;73.64
46079;BME280;31820;51.880;-0.518;2022-10-16T14:06:03;99258.38;;;16.21;73.34
46079;BME280;31820;51.880;-0.518;2022-10-16T14:08:30;99238.28;;;16.22;73.43
46079;BME280;31820;51.880;-0.518;2022-10-16T14:10:58;99247.09;;;16.24;73.38
46079;BME280;31820;51.880;-0.518;2022-10-16T14:13:34;99240.44;;;16.26;73.20
46079;BME280;31820;51.880;-0.518;2022-10-16T14:16:08;99234.00;;;16.27;73.28
46079;BME280;31820;51.880;-0.518;2022-10-16T14:18:35;99223.47;;;16.24;73.47
46079;BME280;31820;51.880;-0.518;2022-10-16T14:21:04;99232.09;;;16.28;73.27
46079;BME280;31820;51.880;-0.518;2022-10-16T14:23:36;99227.50;;;16.28;73.26
46079;BME280;31820;51.880;-0.518;2022-10-16T14:26:23;99229.38;;;16.28;73.15
46079;BME280;31820;51.880;-0.518;2022-10-16T14:29:02;99222.06;;;16.28;73.20
46079;BME280;31820;51.880;-0.518;2022-10-16T14:31:33;99220.38;;;16.27;73.19
46079;BME280;31820;51.880;-0.518;2022-10-16T14:33:59;99220.38;;;16.27;72.87
46079;BME280;31820;51.880;-0.518;2022-10-16T14:36:27;99229.38;;;16.28;73.15
46079;BME280;31820;51.880;-0.518;2022-10-16T14:38:59;99223.94;;;16.28;73.09
46079;BME280;31820;51.880;-0.518;2022-10-16T14:41:27;99227.50;;;16.28;73.15
46079;BME280;31820;51.880;-0.518;2022-10-16T14:43:55;99217.47;;;16.29;73.19
46079;BME280;31820;51.880;-0.518;2022-10-16T14:46:28;99220.38;;;16.27;73.25